Terminal Aerodrome Forecast
Issued by NWS Birmingham, AL

Home | Current Version | Previous Version | Text Only | Print | Product List | Glossary On
Versions: 1 2 3 4 5 6 7 8 9 10 11 12 13 14 15 16 17
201
FTUS44 KBMX 052329
TAFBHM
TAF
KBHM 052329Z 0600/0624 31013G23KT P6SM SCT080
     FM060200 33010KT P6SM SKC
     FM060600 34005KT P6SM SKC
     FM061400 35012G18KT P6SM SCT070=

USA.gov is the U.S. government's official web portal to all federal, state and local government web resources and services.